Pagrindinis puslapis
METAR-TAF:

METAR-TAF

Oro uostai :

Kučingas, Malaizija

platuma: 01-29N, ilguma: 110-20E, Aukštis: 27 m

Dabartinis oras

Ataskaita buvo paskelbta 34 minutes, ne 04:30 UTC
Vėjas 4 kt nuo kintamojo kryptimis
Temperatūra 30°C
Drėgmė 75%
Slėgis 1009 hPa
Matomumas 10 km arba daugiau
Mažai debesys ne aukštis 1600 ft

METAR: WBGG 290430Z VRB04KT 9999 FEW016 30/25 Q1009 NOSIG

Laikas: 13:04 (05:04 UTC)

Prognozė

Ataskaita buvo paskelbta 6 valandos ir 4 minutes, ne 23:00 UTC
Prognozė galioja nuo 29 metu 00 UTC su 01 metu 00 UTC
Vėjas 5 kt iš Rytų
Matomumas 10 km arba daugiau
Išsisklaidę debesys ne aukštis 2000 ft
Laikinai
nuo 29 metu 01 UTC su 29 metu 05 UTC
Matomumas: 4000 m
Mažai debesys ne aukštis 100 ft
Išsisklaidę debesys ne aukštis 1600 ft
lietus

TAF: WBGG 282300Z 2900/0100 09005KT 9999 SCT020 TEMPO 2901/2905 4000 RA FEW001 SCT016

Orai ataskaitas ir orų prognozės (METAR, TAF).

turimą stotys yra geltonos ir raudonos taškus žemėlapyje.

Perkelti pele per norėdami pamatyti stoties vardą.

Tada spustelėkite, norėdami matyti oro stebėjimo ir prognozės.

Norėdami pakeisti žemėlapį: spustelėkite ant žalios mygtukų su juodo kryžiaus žemyn,; žalią mygtuką su brūkšneliu, jei norite nutolinti; arba žalių rodyklių gretimoms žemėlapius.


METAR-TAF: